sensor_id;sensor_type;location;lat;lon;timestamp;P1;durP1;ratioP1;P2;durP2;ratioP2
22646;SDS011;11490;42.726;23.268;2024-02-26T00:00:06;30.25;;;13.85;;
22646;SDS011;11490;42.726;23.268;2024-02-26T00:02:35;21.92;;;12.27;;
22646;SDS011;11490;42.726;23.268;2024-02-26T00:05:05;19.98;;;11.85;;
22646;SDS011;11490;42.726;23.268;2024-02-26T00:07:31;20.88;;;12.82;;
22646;SDS011;11490;42.726;23.268;2024-02-26T00:09:57;28.70;;;13.93;;
22646;SDS011;11490;42.726;23.268;2024-02-26T00:12:22;24.27;;;13.68;;
22646;SDS011;11490;42.726;23.268;2024-02-26T00:14:48;20.67;;;11.77;;
22646;SDS011;11490;42.726;23.268;2024-02-26T00:17:14;19.92;;;11.80;;
22646;SDS011;11490;42.726;23.268;2024-02-26T00:19:40;23.08;;;13.90;;
22646;SDS011;11490;42.726;23.268;2024-02-26T00:22:06;19.17;;;12.98;;
22646;SDS011;11490;42.726;23.268;2024-02-26T00:24:31;24.63;;;13.07;;
22646;SDS011;11490;42.726;23.268;2024-02-26T00:26:57;36.13;;;15.05;;
22646;SDS011;11490;42.726;23.268;2024-02-26T00:29:24;23.10;;;12.25;;
22646;SDS011;11490;42.726;23.268;2024-02-26T00:31:50;23.35;;;13.40;;
22646;SDS011;11490;42.726;23.268;2024-02-26T00:34:16;21.88;;;14.07;;
22646;SDS011;11490;42.726;23.268;2024-02-26T00:36:41;23.50;;;13.75;;
22646;SDS011;11490;42.726;23.268;2024-02-26T00:39:06;25.50;;;12.98;;
22646;SDS011;11490;42.726;23.268;2024-02-26T00:41:32;22.55;;;13.85;;
22646;SDS011;11490;42.726;23.268;2024-02-26T00:43:57;23.50;;;14.07;;
22646;SDS011;11490;42.726;23.268;2024-02-26T00:46:22;23.42;;;12.82;;
22646;SDS011;11490;42.726;23.268;2024-02-26T00:48:48;22.42;;;12.82;;
22646;SDS011;11490;42.726;23.268;2024-02-26T00:51:13;21.77;;;11.93;;
22646;SDS011;11490;42.726;23.268;2024-02-26T00:53:40;24.00;;;13.02;;
22646;SDS011;11490;42.726;23.268;2024-02-26T00:56:05;20.95;;;12.93;;
22646;SDS011;11490;42.726;23.268;2024-02-26T00:58:31;30.92;;;12.05;;
22646;SDS011;11490;42.726;23.268;2024-02-26T01:00:57;19.75;;;13.25;;
22646;SDS011;11490;42.726;23.268;2024-02-26T01:03:23;23.70;;;14.30;;
22646;SDS011;11490;42.726;23.268;2024-02-26T01:05:48;22.17;;;14.05;;
22646;SDS011;11490;42.726;23.268;2024-02-26T01:08:13;29.70;;;17.20;;
22646;SDS011;11490;42.726;23.268;2024-02-26T01:10:39;29.23;;;16.13;;
22646;SDS011;11490;42.726;23.268;2024-02-26T01:13:04;30.08;;;15.23;;
22646;SDS011;11490;42.726;23.268;2024-02-26T01:15:29;24.27;;;13.48;;
22646;SDS011;11490;42.726;23.268;2024-02-26T01:17:55;25.08;;;13.27;;
22646;SDS011;11490;42.726;23.268;2024-02-26T01:20:20;16.73;;;11.63;;
22646;SDS011;11490;42.726;23.268;2024-02-26T01:22:46;23.08;;;13.57;;
22646;SDS011;11490;42.726;23.268;2024-02-26T01:25:11;23.05;;;12.88;;
22646;SDS011;11490;42.726;23.268;2024-02-26T01:27:37;24.30;;;13.32;;
22646;SDS011;11490;42.726;23.268;2024-02-26T01:30:03;22.33;;;12.88;;
22646;SDS011;11490;42.726;23.268;2024-02-26T01:32:29;21.70;;;12.45;;
22646;SDS011;11490;42.726;23.268;2024-02-26T01:34:55;20.30;;;12.18;;
22646;SDS011;11490;42.726;23.268;2024-02-26T01:37:20;22.63;;;13.27;;
22646;SDS011;11490;42.726;23.268;2024-02-26T01:39:46;85.60;;;45.00;;
22646;SDS011;11490;42.726;23.268;2024-02-26T01:42:11;44.92;;;24.75;;
22646;SDS011;11490;42.726;23.268;2024-02-26T01:44:36;40.97;;;22.30;;
22646;SDS011;11490;42.726;23.268;2024-02-26T01:47:03;46.03;;;25.35;;
22646;SDS011;11490;42.726;23.268;2024-02-26T01:49:30;37.47;;;20.98;;
22646;SDS011;11490;42.726;23.268;2024-02-26T01:51:56;29.60;;;18.17;;
22646;SDS011;11490;42.726;23.268;2024-02-26T01:54:23;31.95;;;18.85;;
22646;SDS011;11490;42.726;23.268;2024-02-26T01:56:49;29.10;;;15.07;;
22646;SDS011;11490;42.726;23.268;2024-02-26T01:59:15;21.73;;;13.55;;
22646;SDS011;11490;42.726;23.268;2024-02-26T02:01:42;21.98;;;14.05;;
22646;SDS011;11490;42.726;23.268;2024-02-26T02:04:10;20.58;;;13.20;;
22646;SDS011;11490;42.726;23.268;2024-02-26T02:06:36;19.52;;;12.15;;
22646;SDS011;11490;42.726;23.268;2024-02-26T02:09:03;20.92;;;12.35;;
22646;SDS011;11490;42.726;23.268;2024-02-26T02:11:32;26.92;;;17.42;;
22646;SDS011;11490;42.726;23.268;2024-02-26T02:13:58;37.20;;;22.15;;
22646;SDS011;11490;42.726;23.268;2024-02-26T02:16:24;27.90;;;18.45;;
22646;SDS011;11490;42.726;23.268;2024-02-26T02:18:50;31.63;;;16.52;;
22646;SDS011;11490;42.726;23.268;2024-02-26T02:21:15;26.23;;;16.35;;
22646;SDS011;11490;42.726;23.268;2024-02-26T02:23:40;24.88;;;15.50;;
22646;SDS011;11490;42.726;23.268;2024-02-26T02:26:11;23.90;;;14.68;;
22646;SDS011;11490;42.726;23.268;2024-02-26T02:28:40;22.40;;;14.93;;
22646;SDS011;11490;42.726;23.268;2024-02-26T02:31:06;21.55;;;13.88;;
22646;SDS011;11490;42.726;23.268;2024-02-26T02:33:32;36.95;;;17.42;;
22646;SDS011;11490;42.726;23.268;2024-02-26T02:35:59;23.00;;;15.15;;
22646;SDS011;11490;42.726;23.268;2024-02-26T02:38:24;19.05;;;14.40;;
22646;SDS011;11490;42.726;23.268;2024-02-26T02:40:51;22.40;;;15.50;;
22646;SDS011;11490;42.726;23.268;2024-02-26T02:43:17;23.40;;;14.55;;
22646;SDS011;11490;42.726;23.268;2024-02-26T02:45:42;24.08;;;15.27;;
22646;SDS011;11490;42.726;23.268;2024-02-26T02:48:07;24.75;;;14.93;;
22646;SDS011;11490;42.726;23.268;2024-02-26T02:50:33;40.03;;;15.30;;
22646;SDS011;11490;42.726;23.268;2024-02-26T02:52:58;23.23;;;14.30;;
22646;SDS011;11490;42.726;23.268;2024-02-26T02:55:24;23.90;;;13.43;;
22646;SDS011;11490;42.726;23.268;2024-02-26T02:57:50;23.70;;;14.60;;
22646;SDS011;11490;42.726;23.268;2024-02-26T03:00:15;26.58;;;12.40;;
22646;SDS011;11490;42.726;23.268;2024-02-26T03:02:41;30.10;;;13.95;;
22646;SDS011;11490;42.726;23.268;2024-02-26T03:05:07;20.45;;;12.30;;
22646;SDS011;11490;42.726;23.268;2024-02-26T03:07:33;18.50;;;12.00;;
22646;SDS011;11490;42.726;23.268;2024-02-26T03:09:59;20.42;;;12.90;;
22646;SDS011;11490;42.726;23.268;2024-02-26T03:12:24;18.15;;;11.98;;
22646;SDS011;11490;42.726;23.268;2024-02-26T03:14:50;19.30;;;12.07;;
22646;SDS011;11490;42.726;23.268;2024-02-26T03:17:16;19.75;;;12.23;;
22646;SDS011;11490;42.726;23.268;2024-02-26T03:19:41;18.58;;;11.13;;
22646;SDS011;11490;42.726;23.268;2024-02-26T03:22:11;23.02;;;13.15;;
22646;SDS011;11490;42.726;23.268;2024-02-26T03:24:37;31.50;;;13.52;;
22646;SDS011;11490;42.726;23.268;2024-02-26T03:27:02;20.30;;;13.38;;
22646;SDS011;11490;42.726;23.268;2024-02-26T03:29:28;23.85;;;11.40;;
22646;SDS011;11490;42.726;23.268;2024-02-26T03:31:53;20.88;;;11.20;;
22646;SDS011;11490;42.726;23.268;2024-02-26T03:34:18;23.23;;;12.85;;
22646;SDS011;11490;42.726;23.268;2024-02-26T03:36:44;25.30;;;14.30;;
22646;SDS011;11490;42.726;23.268;2024-02-26T03:39:10;27.63;;;13.63;;
22646;SDS011;11490;42.726;23.268;2024-02-26T03:41:36;21.10;;;11.27;;
22646;SDS011;11490;42.726;23.268;2024-02-26T03:44:02;27.45;;;14.43;;
22646;SDS011;11490;42.726;23.268;2024-02-26T03:46:27;25.63;;;13.60;;
22646;SDS011;11490;42.726;23.268;2024-02-26T03:48:53;22.75;;;13.80;;
22646;SDS011;11490;42.726;23.268;2024-02-26T03:51:18;19.55;;;13.32;;
22646;SDS011;11490;42.726;23.268;2024-02-26T03:53:44;23.27;;;12.35;;
22646;SDS011;11490;42.726;23.268;2024-02-26T03:56:10;19.30;;;11.70;;
22646;SDS011;11490;42.726;23.268;2024-02-26T03:58:36;23.05;;;13.27;;
22646;SDS011;11490;42.726;23.268;2024-02-26T04:01:02;22.20;;;13.05;;
22646;SDS011;11490;42.726;23.268;2024-02-26T04:03:27;19.55;;;11.73;;
22646;SDS011;11490;42.726;23.268;2024-02-26T04:05:53;24.20;;;13.23;;
22646;SDS011;11490;42.726;23.268;2024-02-26T04:08:19;25.40;;;13.63;;
22646;SDS011;11490;42.726;23.268;2024-02-26T04:10:44;28.20;;;16.00;;
22646;SDS011;11490;42.726;23.268;2024-02-26T04:13:09;28.50;;;16.90;;
22646;SDS011;11490;42.726;23.268;2024-02-26T04:15:35;29.15;;;17.45;;
22646;SDS011;11490;42.726;23.268;2024-02-26T04:18:00;31.83;;;15.30;;
22646;SDS011;11490;42.726;23.268;2024-02-26T04:20:25;31.10;;;16.23;;
22646;SDS011;11490;42.726;23.268;2024-02-26T04:22:51;26.17;;;16.75;;
22646;SDS011;11490;42.726;23.268;2024-02-26T04:25:16;25.25;;;16.15;;
22646;SDS011;11490;42.726;23.268;2024-02-26T04:27:42;32.53;;;17.60;;
22646;SDS011;11490;42.726;23.268;2024-02-26T04:30:07;31.00;;;16.80;;
22646;SDS011;11490;42.726;23.268;2024-02-26T04:32:33;24.15;;;16.25;;
22646;SDS011;11490;42.726;23.268;2024-02-26T04:34:59;27.30;;;15.70;;
22646;SDS011;11490;42.726;23.268;2024-02-26T04:37:25;23.58;;;15.38;;
22646;SDS011;11490;42.726;23.268;2024-02-26T04:39:56;24.23;;;14.63;;
22646;SDS011;11490;42.726;23.268;2024-02-26T04:42:24;26.25;;;15.30;;
22646;SDS011;11490;42.726;23.268;2024-02-26T04:44:50;29.65;;;17.45;;
22646;SDS011;11490;42.726;23.268;2024-02-26T04:47:16;23.38;;;14.93;;
22646;SDS011;11490;42.726;23.268;2024-02-26T04:49:41;24.27;;;14.43;;
22646;SDS011;11490;42.726;23.268;2024-02-26T04:52:06;22.70;;;15.23;;
22646;SDS011;11490;42.726;23.268;2024-02-26T04:54:32;26.80;;;14.13;;
22646;SDS011;11490;42.726;23.268;2024-02-26T04:56:57;22.38;;;14.65;;
22646;SDS011;11490;42.726;23.268;2024-02-26T04:59:23;26.05;;;13.70;;
22646;SDS011;11490;42.726;23.268;2024-02-26T05:01:48;19.48;;;12.25;;
22646;SDS011;11490;42.726;23.268;2024-02-26T05:04:13;22.85;;;11.18;;
22646;SDS011;11490;42.726;23.268;2024-02-26T05:06:39;16.35;;;11.68;;
22646;SDS011;11490;42.726;23.268;2024-02-26T05:09:05;25.52;;;12.10;;
22646;SDS011;11490;42.726;23.268;2024-02-26T05:11:30;17.63;;;10.55;;
22646;SDS011;11490;42.726;23.268;2024-02-26T05:13:56;20.63;;;11.02;;
22646;SDS011;11490;42.726;23.268;2024-02-26T05:16:22;22.70;;;10.98;;
22646;SDS011;11490;42.726;23.268;2024-02-26T05:18:49;16.23;;;9.68;;
22646;SDS011;11490;42.726;23.268;2024-02-26T05:21:15;15.85;;;10.38;;
22646;SDS011;11490;42.726;23.268;2024-02-26T05:23:40;16.55;;;10.15;;
22646;SDS011;11490;42.726;23.268;2024-02-26T05:26:08;15.63;;;9.70;;
22646;SDS011;11490;42.726;23.268;2024-02-26T05:28:34;21.75;;;11.40;;
22646;SDS011;11490;42.726;23.268;2024-02-26T05:30:59;22.05;;;11.60;;
22646;SDS011;11490;42.726;23.268;2024-02-26T05:33:25;21.13;;;12.25;;
22646;SDS011;11490;42.726;23.268;2024-02-26T05:35:51;20.58;;;12.07;;
22646;SDS011;11490;42.726;23.268;2024-02-26T05:38:16;29.52;;;11.00;;
22646;SDS011;11490;42.726;23.268;2024-02-26T05:40:41;17.58;;;10.55;;
22646;SDS011;11490;42.726;23.268;2024-02-26T05:43:07;19.70;;;12.05;;
22646;SDS011;11490;42.726;23.268;2024-02-26T05:45:32;13.43;;;9.88;;
22646;SDS011;11490;42.726;23.268;2024-02-26T05:47:58;20.75;;;11.95;;
22646;SDS011;11490;42.726;23.268;2024-02-26T05:50:23;18.15;;;11.18;;
22646;SDS011;11490;42.726;23.268;2024-02-26T05:52:49;26.98;;;14.70;;
22646;SDS011;11490;42.726;23.268;2024-02-26T05:55:14;62.38;;;23.88;;
22646;SDS011;11490;42.726;23.268;2024-02-26T05:57:39;66.57;;;29.10;;
22646;SDS011;11490;42.726;23.268;2024-02-26T06:00:06;51.28;;;26.13;;
22646;SDS011;11490;42.726;23.268;2024-02-26T06:02:31;35.58;;;18.88;;
22646;SDS011;11490;42.726;23.268;2024-02-26T06:04:57;26.92;;;16.88;;
22646;SDS011;11490;42.726;23.268;2024-02-26T06:07:23;27.30;;;15.10;;
22646;SDS011;11490;42.726;23.268;2024-02-26T06:09:48;26.33;;;16.92;;
22646;SDS011;11490;42.726;23.268;2024-02-26T06:12:13;34.03;;;16.55;;
22646;SDS011;11490;42.726;23.268;2024-02-26T06:14:39;24.25;;;15.77;;
22646;SDS011;11490;42.726;23.268;2024-02-26T06:17:04;23.40;;;14.32;;
22646;SDS011;11490;42.726;23.268;2024-02-26T06:19:30;27.65;;;14.80;;
22646;SDS011;11490;42.726;23.268;2024-02-26T06:21:55;28.58;;;17.33;;
22646;SDS011;11490;42.726;23.268;2024-02-26T06:24:20;29.15;;;16.35;;
22646;SDS011;11490;42.726;23.268;2024-02-26T06:26:47;33.70;;;16.52;;
22646;SDS011;11490;42.726;23.268;2024-02-26T06:29:13;105.18;;;38.92;;
22646;SDS011;11490;42.726;23.268;2024-02-26T06:31:38;114.78;;;43.40;;
22646;SDS011;11490;42.726;23.268;2024-02-26T06:34:04;96.40;;;36.85;;
22646;SDS011;11490;42.726;23.268;2024-02-26T06:36:29;133.60;;;48.78;;
22646;SDS011;11490;42.726;23.268;2024-02-26T06:38:56;98.50;;;45.55;;
22646;SDS011;11490;42.726;23.268;2024-02-26T06:41:22;66.85;;;39.60;;
22646;SDS011;11490;42.726;23.268;2024-02-26T06:43:52;103.50;;;53.38;;
22646;SDS011;11490;42.726;23.268;2024-02-26T06:46:20;145.68;;;63.20;;
22646;SDS011;11490;42.726;23.268;2024-02-26T06:48:47;73.15;;;45.10;;
22646;SDS011;11490;42.726;23.268;2024-02-26T06:51:13;37.13;;;21.17;;
22646;SDS011;11490;42.726;23.268;2024-02-26T06:53:38;28.70;;;15.90;;
22646;SDS011;11490;42.726;23.268;2024-02-26T06:56:13;23.25;;;12.95;;
22646;SDS011;11490;42.726;23.268;2024-02-26T06:58:38;26.20;;;14.65;;
22646;SDS011;11490;42.726;23.268;2024-02-26T07:01:04;24.20;;;13.05;;
22646;SDS011;11490;42.726;23.268;2024-02-26T07:03:29;24.50;;;13.00;;
22646;SDS011;11490;42.726;23.268;2024-02-26T07:05:57;25.30;;;13.98;;
22646;SDS011;11490;42.726;23.268;2024-02-26T07:08:23;23.25;;;14.57;;
22646;SDS011;11490;42.726;23.268;2024-02-26T07:10:48;20.25;;;12.40;;
22646;SDS011;11490;42.726;23.268;2024-02-26T07:13:16;23.67;;;13.27;;
22646;SDS011;11490;42.726;23.268;2024-02-26T07:15:42;46.35;;;17.92;;
22646;SDS011;11490;42.726;23.268;2024-02-26T07:18:07;40.22;;;17.33;;
22646;SDS011;11490;42.726;23.268;2024-02-26T07:20:33;24.95;;;14.88;;
22646;SDS011;11490;42.726;23.268;2024-02-26T07:22:58;25.45;;;14.60;;
22646;SDS011;11490;42.726;23.268;2024-02-26T07:25:26;35.28;;;16.83;;
22646;SDS011;11490;42.726;23.268;2024-02-26T07:27:51;23.60;;;12.52;;
22646;SDS011;11490;42.726;23.268;2024-02-26T07:30:17;21.15;;;11.73;;
22646;SDS011;11490;42.726;23.268;2024-02-26T07:32:45;24.13;;;11.75;;
22646;SDS011;11490;42.726;23.268;2024-02-26T07:35:11;19.58;;;12.00;;
22646;SDS011;11490;42.726;23.268;2024-02-26T07:37:36;19.30;;;11.32;;
22646;SDS011;11490;42.726;23.268;2024-02-26T07:40:21;20.85;;;12.10;;
22646;SDS011;11490;42.726;23.268;2024-02-26T07:42:58;17.45;;;11.00;;
22646;SDS011;11490;42.726;23.268;2024-02-26T07:45:24;18.98;;;12.50;;
22646;SDS011;11490;42.726;23.268;2024-02-26T07:47:49;21.83;;;11.25;;
22646;SDS011;11490;42.726;23.268;2024-02-26T07:50:16;18.85;;;10.68;;
22646;SDS011;11490;42.726;23.268;2024-02-26T07:52:47;19.65;;;12.75;;
22646;SDS011;11490;42.726;23.268;2024-02-26T07:55:12;24.77;;;12.05;;
22646;SDS011;11490;42.726;23.268;2024-02-26T07:57:41;26.23;;;13.15;;
22646;SDS011;11490;42.726;23.268;2024-02-26T08:00:08;20.20;;;11.13;;
22646;SDS011;11490;42.726;23.268;2024-02-26T08:02:34;23.30;;;14.73;;
22646;SDS011;11490;42.726;23.268;2024-02-26T08:04:59;23.80;;;13.25;;
22646;SDS011;11490;42.726;23.268;2024-02-26T08:07:25;17.13;;;11.65;;
22646;SDS011;11490;42.726;23.268;2024-02-26T08:09:50;20.50;;;12.95;;
22646;SDS011;11490;42.726;23.268;2024-02-26T08:12:16;25.27;;;12.07;;
22646;SDS011;11490;42.726;23.268;2024-02-26T08:14:44;23.75;;;13.38;;
22646;SDS011;11490;42.726;23.268;2024-02-26T08:17:10;22.50;;;14.02;;
22646;SDS011;11490;42.726;23.268;2024-02-26T08:19:35;22.70;;;13.73;;
22646;SDS011;11490;42.726;23.268;2024-02-26T08:22:01;23.95;;;12.40;;
22646;SDS011;11490;42.726;23.268;2024-02-26T08:24:27;28.08;;;14.88;;
22646;SDS011;11490;42.726;23.268;2024-02-26T08:26:52;24.45;;;13.55;;
22646;SDS011;11490;42.726;23.268;2024-02-26T08:29:18;25.92;;;17.90;;
22646;SDS011;11490;42.726;23.268;2024-02-26T08:31:43;30.80;;;14.23;;
22646;SDS011;11490;42.726;23.268;2024-02-26T08:34:09;28.73;;;14.82;;
22646;SDS011;11490;42.726;23.268;2024-02-26T08:36:34;23.33;;;14.85;;
22646;SDS011;11490;42.726;23.268;2024-02-26T08:39:00;30.23;;;14.50;;
22646;SDS011;11490;42.726;23.268;2024-02-26T08:41:25;26.00;;;14.77;;
22646;SDS011;11490;42.726;23.268;2024-02-26T08:43:51;27.00;;;15.38;;
22646;SDS011;11490;42.726;23.268;2024-02-26T08:46:16;26.02;;;14.63;;
22646;SDS011;11490;42.726;23.268;2024-02-26T08:48:42;23.48;;;15.13;;
22646;SDS011;11490;42.726;23.268;2024-02-26T08:51:07;27.17;;;13.93;;
22646;SDS011;11490;42.726;23.268;2024-02-26T08:53:34;25.52;;;16.60;;
22646;SDS011;11490;42.726;23.268;2024-02-26T08:56:00;23.65;;;15.52;;
22646;SDS011;11490;42.726;23.268;2024-02-26T08:58:27;22.92;;;13.57;;
22646;SDS011;11490;42.726;23.268;2024-02-26T09:00:53;24.50;;;12.75;;
22646;SDS011;11490;42.726;23.268;2024-02-26T09:03:18;30.80;;;14.95;;
22646;SDS011;11490;42.726;23.268;2024-02-26T09:05:43;22.00;;;15.13;;
22646;SDS011;11490;42.726;23.268;2024-02-26T09:08:09;24.17;;;14.55;;
22646;SDS011;11490;42.726;23.268;2024-02-26T09:10:34;23.92;;;13.35;;
22646;SDS011;11490;42.726;23.268;2024-02-26T09:12:59;29.27;;;17.13;;
22646;SDS011;11490;42.726;23.268;2024-02-26T09:15:25;21.17;;;13.02;;
22646;SDS011;11490;42.726;23.268;2024-02-26T09:17:50;24.48;;;13.13;;
22646;SDS011;11490;42.726;23.268;2024-02-26T09:20:17;24.02;;;12.63;;
22646;SDS011;11490;42.726;23.268;2024-02-26T09:22:45;20.30;;;12.50;;
22646;SDS011;11490;42.726;23.268;2024-02-26T09:25:11;22.08;;;12.50;;
22646;SDS011;11490;42.726;23.268;2024-02-26T09:27:36;21.92;;;13.02;;
22646;SDS011;11490;42.726;23.268;2024-02-26T09:30:02;27.60;;;13.75;;
22646;SDS011;11490;42.726;23.268;2024-02-26T09:32:27;22.30;;;13.02;;
22646;SDS011;11490;42.726;23.268;2024-02-26T09:34:53;19.35;;;12.27;;
22646;SDS011;11490;42.726;23.268;2024-02-26T09:37:18;22.00;;;13.45;;
22646;SDS011;11490;42.726;23.268;2024-02-26T09:39:44;16.13;;;9.02;;
22646;SDS011;11490;42.726;23.268;2024-02-26T09:42:09;18.48;;;11.10;;
22646;SDS011;11490;42.726;23.268;2024-02-26T09:44:39;20.23;;;11.18;;
22646;SDS011;11490;42.726;23.268;2024-02-26T09:47:07;22.45;;;10.40;;
22646;SDS011;11490;42.726;23.268;2024-02-26T09:49:35;23.08;;;11.45;;
22646;SDS011;11490;42.726;23.268;2024-02-26T09:52:01;22.92;;;10.90;;
22646;SDS011;11490;42.726;23.268;2024-02-26T09:54:29;15.43;;;8.18;;
22646;SDS011;11490;42.726;23.268;2024-02-26T09:56:57;7.60;;;5.13;;
22646;SDS011;11490;42.726;23.268;2024-02-26T09:59:26;6.80;;;5.22;;
22646;SDS011;11490;42.726;23.268;2024-02-26T10:01:53;18.73;;;5.40;;
22646;SDS011;11490;42.726;23.268;2024-02-26T10:04:19;10.60;;;6.90;;
22646;SDS011;11490;42.726;23.268;2024-02-26T10:06:45;12.68;;;9.13;;
22646;SDS011;11490;42.726;23.268;2024-02-26T10:09:12;8.75;;;6.18;;
22646;SDS011;11490;42.726;23.268;2024-02-26T10:11:37;14.35;;;5.20;;
22646;SDS011;11490;42.726;23.268;2024-02-26T10:14:03;6.72;;;5.05;;
22646;SDS011;11490;42.726;23.268;2024-02-26T10:16:28;7.18;;;4.45;;
22646;SDS011;11490;42.726;23.268;2024-02-26T10:18:54;8.18;;;4.88;;
22646;SDS011;11490;42.726;23.268;2024-02-26T10:21:20;7.55;;;4.93;;
22646;SDS011;11490;42.726;23.268;2024-02-26T10:23:46;8.70;;;4.68;;
22646;SDS011;11490;42.726;23.268;2024-02-26T10:26:13;7.05;;;4.63;;
22646;SDS011;11490;42.726;23.268;2024-02-26T10:28:41;8.65;;;4.95;;
22646;SDS011;11490;42.726;23.268;2024-02-26T10:31:07;6.80;;;4.85;;
22646;SDS011;11490;42.726;23.268;2024-02-26T10:33:34;11.55;;;7.72;;
22646;SDS011;11490;42.726;23.268;2024-02-26T10:36:01;7.22;;;4.97;;
22646;SDS011;11490;42.726;23.268;2024-02-26T10:42:19;7.13;;;5.15;;
22646;SDS011;11490;42.726;23.268;2024-02-26T10:44:45;8.15;;;5.32;;
22646;SDS011;11490;42.726;23.268;2024-02-26T10:47:14;9.25;;;4.47;;
22646;SDS011;11490;42.726;23.268;2024-02-26T10:49:44;8.70;;;5.32;;
22646;SDS011;11490;42.726;23.268;2024-02-26T10:52:11;7.30;;;5.03;;
22646;SDS011;11490;42.726;23.268;2024-02-26T10:54:37;7.53;;;5.72;;
22646;SDS011;11490;42.726;23.268;2024-02-26T10:57:06;5.78;;;3.97;;
22646;SDS011;11490;42.726;23.268;2024-02-26T10:59:33;11.02;;;4.57;;
22646;SDS011;11490;42.726;23.268;2024-02-26T11:02:00;6.32;;;4.75;;
22646;SDS011;11490;42.726;23.268;2024-02-26T11:04:26;8.10;;;5.22;;
22646;SDS011;11490;42.726;23.268;2024-02-26T11:06:55;7.80;;;4.60;;
22646;SDS011;11490;42.726;23.268;2024-02-26T11:09:22;8.95;;;3.85;;
22646;SDS011;11490;42.726;23.268;2024-02-26T11:11:49;5.97;;;4.50;;
22646;SDS011;11490;42.726;23.268;2024-02-26T11:14:19;5.68;;;4.43;;
22646;SDS011;11490;42.726;23.268;2024-02-26T11:16:45;7.13;;;4.32;;
22646;SDS011;11490;42.726;23.268;2024-02-26T11:19:12;7.00;;;5.25;;
22646;SDS011;11490;42.726;23.268;2024-02-26T11:21:39;7.30;;;4.88;;
22646;SDS011;11490;42.726;23.268;2024-02-26T11:24:14;6.85;;;4.68;;
22646;SDS011;11490;42.726;23.268;2024-02-26T11:26:50;7.25;;;4.07;;
22646;SDS011;11490;42.726;23.268;2024-02-26T11:29:24;7.78;;;4.63;;
22646;SDS011;11490;42.726;23.268;2024-02-26T11:31:58;5.78;;;4.10;;
22646;SDS011;11490;42.726;23.268;2024-02-26T11:34:25;8.00;;;4.07;;
22646;SDS011;11490;42.726;23.268;2024-02-26T11:36:51;11.02;;;3.88;;
22646;SDS011;11490;42.726;23.268;2024-02-26T11:39:16;18.40;;;4.82;;
22646;SDS011;11490;42.726;23.268;2024-02-26T11:41:42;7.65;;;4.25;;
22646;SDS011;11490;42.726;23.268;2024-02-26T11:44:08;5.53;;;4.10;;
22646;SDS011;11490;42.726;23.268;2024-02-26T11:46:38;6.80;;;4.63;;
22646;SDS011;11490;42.726;23.268;2024-02-26T11:51:55;7.28;;;5.00;;
22646;SDS011;11490;42.726;23.268;2024-02-26T12:00:12;7.25;;;4.50;;
22646;SDS011;11490;42.726;23.268;2024-02-26T12:02:59;8.13;;;4.53;;
22646;SDS011;11490;42.726;23.268;2024-02-26T12:05:32;6.35;;;4.43;;
22646;SDS011;11490;42.726;23.268;2024-02-26T12:07:59;6.25;;;4.15;;
22646;SDS011;11490;42.726;23.268;2024-02-26T12:10:35;10.82;;;4.35;;
22646;SDS011;11490;42.726;23.268;2024-02-26T12:13:09;5.43;;;3.90;;
22646;SDS011;11490;42.726;23.268;2024-02-26T12:15:41;4.72;;;3.42;;
22646;SDS011;11490;42.726;23.268;2024-02-26T12:18:08;6.18;;;3.53;;
22646;SDS011;11490;42.726;23.268;2024-02-26T12:20:35;5.10;;;3.70;;
22646;SDS011;11490;42.726;23.268;2024-02-26T12:23:02;4.60;;;3.80;;
22646;SDS011;11490;42.726;23.268;2024-02-26T12:25:29;7.68;;;4.13;;
22646;SDS011;11490;42.726;23.268;2024-02-26T12:27:56;6.70;;;3.72;;
22646;SDS011;11490;42.726;23.268;2024-02-26T12:30:22;15.32;;;7.18;;
22646;SDS011;11490;42.726;23.268;2024-02-26T12:32:49;10.23;;;5.72;;
22646;SDS011;11490;42.726;23.268;2024-02-26T12:35:16;4.22;;;3.30;;
22646;SDS011;11490;42.726;23.268;2024-02-26T12:37:42;5.43;;;4.68;;
22646;SDS011;11490;42.726;23.268;2024-02-26T12:40:08;13.38;;;4.05;;
22646;SDS011;11490;42.726;23.268;2024-02-26T12:42:35;5.63;;;4.10;;
22646;SDS011;11490;42.726;23.268;2024-02-26T12:45:07;5.82;;;3.83;;
22646;SDS011;11490;42.726;23.268;2024-02-26T12:47:35;4.10;;;2.90;;
22646;SDS011;11490;42.726;23.268;2024-02-26T12:50:04;5.55;;;3.33;;
22646;SDS011;11490;42.726;23.268;2024-02-26T12:52:34;6.15;;;4.18;;
22646;SDS011;11490;42.726;23.268;2024-02-26T12:55:03;7.25;;;4.00;;
22646;SDS011;11490;42.726;23.268;2024-02-26T12:57:34;5.13;;;3.30;;
22646;SDS011;11490;42.726;23.268;2024-02-26T13:00:02;3.88;;;3.47;;
22646;SDS011;11490;42.726;23.268;2024-02-26T13:02:31;5.15;;;3.70;;
22646;SDS011;11490;42.726;23.268;2024-02-26T13:04:57;8.65;;;3.80;;
22646;SDS011;11490;42.726;23.268;2024-02-26T13:07:26;10.32;;;4.45;;
22646;SDS011;11490;42.726;23.268;2024-02-26T13:09:52;4.53;;;2.90;;
22646;SDS011;11490;42.726;23.268;2024-02-26T13:12:17;4.60;;;3.10;;
22646;SDS011;11490;42.726;23.268;2024-02-26T13:14:43;6.40;;;3.50;;
22646;SDS011;11490;42.726;23.268;2024-02-26T13:17:08;5.68;;;3.53;;
22646;SDS011;11490;42.726;23.268;2024-02-26T13:19:36;4.32;;;2.85;;
22646;SDS011;11490;42.726;23.268;2024-02-26T13:22:07;5.32;;;3.47;;
22646;SDS011;11490;42.726;23.268;2024-02-26T13:24:35;5.03;;;3.42;;
22646;SDS011;11490;42.726;23.268;2024-02-26T13:27:01;8.48;;;3.40;;
22646;SDS011;11490;42.726;23.268;2024-02-26T13:29:30;7.47;;;3.60;;
22646;SDS011;11490;42.726;23.268;2024-02-26T13:31:57;5.25;;;3.28;;
22646;SDS011;11490;42.726;23.268;2024-02-26T13:34:23;6.80;;;3.05;;
22646;SDS011;11490;42.726;23.268;2024-02-26T13:36:53;4.43;;;3.25;;
22646;SDS011;11490;42.726;23.268;2024-02-26T13:39:27;4.97;;;3.10;;
22646;SDS011;11490;42.726;23.268;2024-02-26T13:41:53;5.60;;;3.50;;
22646;SDS011;11490;42.726;23.268;2024-02-26T13:44:19;3.90;;;2.92;;
22646;SDS011;11490;42.726;23.268;2024-02-26T13:46:45;5.10;;;3.22;;
22646;SDS011;11490;42.726;23.268;2024-02-26T13:49:11;7.47;;;3.72;;
22646;SDS011;11490;42.726;23.268;2024-02-26T13:51:36;7.50;;;4.85;;
22646;SDS011;11490;42.726;23.268;2024-02-26T13:54:02;4.50;;;3.28;;
22646;SDS011;11490;42.726;23.268;2024-02-26T13:56:38;5.18;;;3.05;;
22646;SDS011;11490;42.726;23.268;2024-02-26T13:59:04;6.45;;;3.47;;
22646;SDS011;11490;42.726;23.268;2024-02-26T14:01:32;6.10;;;3.75;;
22646;SDS011;11490;42.726;23.268;2024-02-26T14:03:58;6.07;;;3.78;;
22646;SDS011;11490;42.726;23.268;2024-02-26T14:06:23;6.63;;;3.55;;
22646;SDS011;11490;42.726;23.268;2024-02-26T14:08:49;12.52;;;3.88;;
22646;SDS011;11490;42.726;23.268;2024-02-26T14:11:17;8.90;;;3.78;;
22646;SDS011;11490;42.726;23.268;2024-02-26T14:13:42;7.93;;;3.33;;
22646;SDS011;11490;42.726;23.268;2024-02-26T14:16:07;8.73;;;4.30;;
22646;SDS011;11490;42.726;23.268;2024-02-26T14:18:35;6.03;;;3.25;;
22646;SDS011;11490;42.726;23.268;2024-02-26T14:21:01;10.20;;;3.47;;
22646;SDS011;11490;42.726;23.268;2024-02-26T14:23:26;6.88;;;4.15;;